Time;durP1;ratioP1;P1;durP2;ratioP2;P2;SDS_P1;SDS_P2;PMS_P1;PMS_P2;Temp;Humidity;BMP_temperature;BMP_pressure;BME280_temperature;BME280_humidity;BME280_pressure;Samples;Min_cycle;Max_cycle;Signal;HPM_P1;HPM_P2
2022/08/19 00:01:39;;;;;;;7.88;4.28;;;16.60;99.90;;;;;;5015256;28;20084;-85
2022/08/19 00:04:08;;;;;;;5.88;4.90;;;16.60;99.90;;;;;;5026078;28;20040;-84
2022/08/19 00:06:35;;;;;;;8.05;5.05;;;16.60;99.90;;;;;;5010580;28;20117;-85
2022/08/19 00:09:01;;;;;;;7.97;4.95;;;16.50;99.90;;;;;;5012750;28;20044;-85
2022/08/19 00:11:27;;;;;;;7.50;5.70;;;16.60;99.90;;;;;;5021467;28;20112;-84
2022/08/19 00:13:54;;;;;;;7.05;5.25;;;16.60;99.90;;;;;;5028521;28;20049;-84
2022/08/19 00:16:21;;;;;;;5.20;3.65;;;16.60;99.90;;;;;;5026124;28;20179;-85
2022/08/19 00:18:47;;;;;;;3.95;3.05;;;16.40;99.90;;;;;;5023708;28;20041;-84
2022/08/19 00:21:14;;;;;;;3.58;3.05;;;16.30;99.90;;;;;;5015799;28;20068;-85
2022/08/19 00:23:40;;;;;;;;;;;16.20;99.90;;;;;;5018563;28;20073;-85
2022/08/19 00:26:07;;;;;;;4.15;3.40;;;16.20;99.90;;;;;;5020251;28;19917;-85
2022/08/19 00:28:35;;;;;;;4.65;3.50;;;16.10;99.90;;;;;;5020301;28;20100;-85
2022/08/19 00:31:02;;;;;;;5.93;4.28;;;16.10;99.90;;;;;;5026667;28;20120;-84
2022/08/19 00:33:32;;;;;;;4.60;4.00;;;16.20;99.90;;;;;;5017319;28;20033;-85
2022/08/19 00:35:59;;;;;;;7.50;4.55;;;16.20;99.90;;;;;;5010300;28;20473;-84
2022/08/19 00:38:25;;;;;;;4.30;3.88;;;16.20;99.90;;;;;;5002393;28;20071;-85
2022/08/19 00:40:50;;;;;;;4.80;3.78;;;16.20;99.90;;;;;;5025381;28;20029;-84
2022/08/19 00:43:21;;;;;;;4.60;3.90;;;16.10;99.90;;;;;;5004871;28;20030;-84
2022/08/19 00:45:47;;;;;;;4.38;3.65;;;16.10;99.90;;;;;;5018740;28;20038;-84
2022/08/19 00:48:14;;;;;;;5.70;4.43;;;16.20;99.90;;;;;;4998978;28;20409;-84
2022/08/19 00:50:42;;;;;;;4.75;4.03;;;16.20;99.90;;;;;;5006801;28;20042;-84
2022/08/19 00:53:10;;;;;;;4.90;3.75;;;16.20;99.90;;;;;;5020812;28;20054;-84
2022/08/19 00:55:38;;;;;;;6.35;3.92;;;16.20;99.90;;;;;;4993980;28;20429;-84
2022/08/19 00:58:09;;;;;;;6.78;3.88;;;16.20;99.90;;;;;;4991632;28;20046;-84
2022/08/19 01:00:36;;;;;;;6.85;4.53;;;16.10;99.90;;;;;;5015058;28;20428;-85
2022/08/19 01:03:09;;;;;;;6.65;4.40;;;16.10;99.90;;;;;;5017094;28;20099;-84
2022/08/19 01:05:40;;;;;;;6.82;4.70;;;16.10;99.90;;;;;;5019411;28;20496;-84
2022/08/19 01:08:07;;;;;;;4.50;4.00;;;16.10;99.90;;;;;;5022997;28;20045;-84
2022/08/19 01:10:40;;;;;;;3.35;2.58;;;16.10;99.90;;;;;;5003942;28;20513;-84
2022/08/19 01:13:06;;;;;;;6.22;3.42;;;16.10;99.90;;;;;;5018962;28;20046;-85
2022/08/19 01:15:49;;;;;;;2.08;1.75;;;16.10;99.90;;;;;;5014682;28;20094;-84
2022/08/19 01:18:18;;;;;;;2.20;1.70;;;16.00;99.90;;;;;;5022934;28;20041;-84
2022/08/19 01:20:44;;;;;;;3.55;1.00;;;15.90;99.90;;;;;;5012609;28;20087;-84
2022/08/19 01:23:10;;;;;;;1.95;1.05;;;15.90;99.90;;;;;;5017409;28;20052;-85
2022/08/19 01:25:44;;;;;;;1.55;1.10;;;15.70;99.90;;;;;;5021792;28;20037;-85
2022/08/19 01:28:28;;;;;;;2.67;1.48;;;15.70;99.90;;;;;;5019574;28;20045;-84
2022/08/19 01:30:54;;;;;;;10.98;1.98;;;15.70;99.90;;;;;;5002849;28;20037;-85
2022/08/19 01:33:20;;;;;;;6.47;1.83;;;15.60;99.90;;;;;;5026559;28;20191;-84
2022/08/19 01:35:50;;;;;;;14.13;2.33;;;15.50;99.90;;;;;;5023552;28;20449;-84
2022/08/19 01:38:25;;;;;;;8.90;2.25;;;15.50;99.90;;;;;;5008313;28;20050;-84
2022/08/19 01:40:51;;;;;;;2.30;2.08;;;15.40;99.90;;;;;;4997506;28;20041;-84
2022/08/19 01:43:18;;;;;;;2.80;2.00;;;15.40;99.90;;;;;;5011800;28;20037;-84
2022/08/19 01:45:45;;;;;;;7.13;2.30;;;15.40;99.90;;;;;;5019642;28;20038;-84
2022/08/19 01:48:12;;;;;;;4.50;2.42;;;15.30;99.90;;;;;;5022326;28;20049;-84
2022/08/19 01:50:38;;;;;;;6.50;2.75;;;15.30;99.90;;;;;;5028329;28;20488;-84
2022/08/19 01:53:07;;;;;;;2.55;1.52;;;15.30;99.90;;;;;;5047927;28;20150;-84
2022/08/19 01:55:37;;;;;;;3.40;1.83;;;15.20;99.90;;;;;;5030320;28;20049;-84
2022/08/19 01:58:05;;;;;;;3.92;2.60;;;15.20;99.90;;;;;;4997566;28;20041;-84
2022/08/19 02:00:32;;;;;;;4.60;2.97;;;15.20;99.90;;;;;;5013483;28;20044;-84
2022/08/19 02:02:59;;;;;;;5.45;3.60;;;15.20;99.90;;;;;;5030141;28;20041;-84
2022/08/19 02:05:24;;;;;;;7.13;4.40;;;15.20;99.90;;;;;;5016752;28;20405;-84
2022/08/19 02:07:50;;;;;;;4.00;2.67;;;15.20;99.90;;;;;;5002087;28;20042;-84
2022/08/19 02:10:20;;;;;;;5.00;2.80;;;15.20;99.90;;;;;;5007142;28;20037;-84
2022/08/19 02:12:47;;;;;;;6.30;3.45;;;15.20;99.90;;;;;;5021389;28;20534;-84
2022/08/19 02:15:13;;;;;;;4.78;2.50;;;15.20;99.90;;;;;;5018489;28;20038;-84
2022/08/19 02:17:39;;;;;;;4.47;2.72;;;15.20;99.90;;;;;;5007362;28;20033;-85
2022/08/19 02:20:06;;;;;;;6.00;3.50;;;15.10;99.90;;;;;;5033735;28;20449;-84
2022/08/19 02:22:32;;;;;;;5.90;3.30;;;15.10;99.90;;;;;;5010273;28;20073;-85
2022/08/19 02:24:58;;;;;;;3.72;2.80;;;15.10;99.90;;;;;;4997042;28;20034;-85
2022/08/19 02:27:24;;;;;;;5.32;3.10;;;15.10;99.90;;;;;;5018149;28;20085;-84
2022/08/19 02:29:51;;;;;;;5.85;3.30;;;15.10;99.90;;;;;;4996653;28;20084;-84
2022/08/19 02:32:19;;;;;;;4.38;3.45;;;15.10;99.90;;;;;;5022370;28;20049;-84
2022/08/19 02:34:46;;;;;;;9.00;4.05;;;15.10;99.90;;;;;;5019703;28;20053;-84
2022/08/19 02:38:25;;;;;;;6.68;4.07;;;15.10;99.90;;;;;;5020512;28;20064;-84
2022/08/19 02:39:58;;;;;;;6.85;4.57;;;15.20;99.90;;;;;;5014065;28;20038;-84
2022/08/19 02:42:24;;;;;;;6.88;5.10;;;15.20;99.90;;;;;;5017542;28;20045;-84
2022/08/19 02:44:51;;;;;;;8.90;5.80;;;15.20;99.90;;;;;;5012597;28;20042;-84
2022/08/19 02:47:18;;;;;;;8.43;5.43;;;15.20;99.90;;;;;;5018921;28;20041;-84
2022/08/19 02:49:45;;;;;;;5.82;4.35;;;15.20;99.90;;;;;;5022671;28;20494;-84
2022/08/19 02:52:11;;;;;;;8.23;5.35;;;15.20;99.90;;;;;;5019884;28;20038;-84
2022/08/19 02:54:38;;;;;;;7.43;5.10;;;15.30;99.90;;;;;;5006238;28;20049;-84
2022/08/19 02:57:04;;;;;;;10.20;5.63;;;15.30;99.90;;;;;;5014895;28;20045;-84
2022/08/19 02:59:30;;;;;;;;;;;15.30;99.90;;;;;;5003815;28;20076;-84
2022/08/19 03:01:56;;;;;;;5.40;3.63;;;15.20;99.90;;;;;;5019263;28;19961;-84
2022/08/19 03:04:23;;;;;;;4.50;3.20;;;15.20;99.90;;;;;;5015652;28;20072;-84
2022/08/19 03:06:49;;;;;;;8.38;3.78;;;15.10;99.90;;;;;;5011449;28;20033;-84
2022/08/19 03:09:16;;;;;;;4.35;3.42;;;15.10;99.90;;;;;;4981762;28;20072;-84
2022/08/19 03:11:42;;;;;;;7.00;4.45;;;15.10;99.90;;;;;;5026248;28;20124;-84
2022/08/19 03:14:09;;;;;;;17.60;3.83;;;15.00;99.90;;;;;;5000121;28;20034;-84
2022/08/19 03:16:42;;;;;;;5.70;3.67;;;15.00;99.90;;;;;;5001499;28;20163;-84
2022/08/19 03:19:08;;;;;;;4.90;3.40;;;14.90;99.90;;;;;;5024036;28;20034;-84
2022/08/19 03:21:34;;;;;;;6.00;3.75;;;14.80;99.90;;;;;;5022416;28;20382;-84
2022/08/19 03:24:01;;;;;;;;;;;14.80;99.90;;;;;;5004236;28;20044;-84
2022/08/19 03:26:28;;;;;;;6.35;3.80;;;14.80;99.90;;;;;;5022379;28;19917;-84
2022/08/19 03:28:54;;;;;;;9.02;6.45;;;14.80;99.90;;;;;;5026758;28;20496;-85
2022/08/19 03:31:25;;;;;;;8.15;6.10;;;14.80;99.90;;;;;;4999098;28;20077;-84
2022/08/19 03:33:52;;;;;;;9.18;5.75;;;14.80;99.90;;;;;;5015573;28;20045;-85
2022/08/19 03:36:24;;;;;;;7.25;4.80;;;14.80;99.90;;;;;;4998127;28;20506;-84
2022/08/19 03:38:54;;;;;;;8.30;5.28;;;14.80;99.90;;;;;;5022637;28;20038;-84
2022/08/19 03:41:32;;;;;;;7.13;5.05;;;14.80;99.90;;;;;;5021666;28;20060;-84
2022/08/19 03:43:58;;;;;;;10.23;4.88;;;14.80;99.90;;;;;;5002739;28;20061;-84
2022/08/19 03:46:28;;;;;;;;;;;14.80;99.90;;;;;;5018577;28;20100;-85
2022/08/19 03:48:56;;;;;;;7.05;5.38;;;14.80;99.90;;;;;;5013349;28;19947;-84
2022/08/19 03:51:29;;;;;;;9.38;6.28;;;14.80;99.90;;;;;;5006802;28;20116;-84
2022/08/19 03:53:55;;;;;;;9.52;6.03;;;14.80;99.90;;;;;;5018574;28;20504;-84
2022/08/19 03:56:21;;;;;;;11.15;7.63;;;14.80;99.90;;;;;;5004852;28;20045;-84
2022/08/19 03:58:47;;;;;;;10.98;7.75;;;14.80;99.90;;;;;;5016046;28;20073;-84
2022/08/19 04:01:19;;;;;;;10.40;7.93;;;14.90;99.90;;;;;;5011368;28;20476;-84
2022/08/19 04:03:46;;;;;;;12.57;8.27;;;14.80;99.90;;;;;;5002916;28;20033;-84
2022/08/19 04:06:18;;;;;;;10.95;7.70;;;14.80;99.90;;;;;;5004458;28;20037;-84
2022/08/19 04:08:45;;;;;;;12.70;8.32;;;14.90;99.90;;;;;;5023323;28;20053;-80
2022/08/19 04:11:22;;;;;;;14.75;9.25;;;14.90;99.90;;;;;;4992825;28;20136;-80
2022/08/19 04:13:49;;;;;;;;;;;14.90;99.90;;;;;;5004639;28;20124;-80
2022/08/19 04:16:15;;;;;;;14.20;9.05;;;14.90;99.90;;;;;;5001855;28;19971;-81
2022/08/19 04:18:42;;;;;;;12.95;8.63;;;14.90;99.90;;;;;;4981513;28;20453;-80
2022/08/19 04:21:08;;;;;;;14.05;9.10;;;14.90;99.90;;;;;;4984894;28;20512;-81
2022/08/19 04:23:38;;;;;;;15.00;10.00;;;14.90;99.90;;;;;;4984045;28;20033;-81
2022/08/19 04:26:03;;;;;;;14.43;9.80;;;14.90;99.90;;;;;;4989485;28;20033;-80
2022/08/19 04:28:29;;;;;;;15.35;9.93;;;14.90;99.90;;;;;;4999250;28;20401;-80
2022/08/19 04:30:55;;;;;;;16.63;10.07;;;14.90;99.90;;;;;;5001888;28;20049;-81
2022/08/19 04:33:25;;;;;;;15.48;10.20;;;14.90;99.90;;;;;;5018860;28;20497;-80
2022/08/19 04:35:52;;;;;;;14.93;10.00;;;14.90;99.90;;;;;;5014771;28;20045;-81
2022/08/19 04:38:22;;;;;;;19.45;10.40;;;14.90;99.90;;;;;;5023365;28;20042;-81
2022/08/19 04:43:36;;;;;;;13.70;9.87;;;14.90;99.90;;;;;;5016552;28;20072;-81
2022/08/19 04:46:11;;;;;;;15.32;9.95;;;14.90;99.90;;;;;;5013750;28;20292;-80
2022/08/19 04:48:37;;;;;;;18.13;10.88;;;14.90;99.90;;;;;;5010154;28;20042;-78
2022/08/19 04:51:08;;;;;;;14.95;9.80;;;15.00;99.90;;;;;;5010803;28;20123;-80
2022/08/19 04:53:36;;;;;;;13.73;9.45;;;14.90;99.90;;;;;;5018076;28;20053;-80
2022/08/19 04:56:12;;;;;;;15.90;10.52;;;15.00;99.90;;;;;;5026638;28;20488;-80
2022/08/19 04:58:42;;;;;;;12.82;8.82;;;15.00;99.90;;;;;;5014902;28;20394;-80
2022/08/19 05:01:12;;;;;;;12.63;8.85;;;15.00;99.90;;;;;;5027507;28;20504;-80
2022/08/19 05:03:38;;;;;;;14.70;10.15;;;15.00;99.90;;;;;;5019113;28;20038;-80
2022/08/19 05:06:12;;;;;;;16.15;11.00;;;15.00;99.90;;;;;;5016747;28;20045;-80
2022/08/19 05:08:42;;;;;;;14.38;10.23;;;15.10;99.90;;;;;;5015927;28;20073;-80
2022/08/19 05:11:28;;;;;;;13.68;9.07;;;15.10;99.90;;;;;;4996758;28;20044;-80
2022/08/19 05:13:54;;;;;;;11.65;8.13;;;15.10;99.90;;;;;;5002621;28;20133;-80
2022/08/19 05:16:22;;;;;;;13.15;8.70;;;15.00;99.90;;;;;;4991345;28;20495;-80
2022/08/19 05:24:20;;;;;;;93.32;6.95;;;15.10;99.90;;;;;;5015240;28;20038;-80
2022/08/19 05:26:48;;;;;;;26.33;4.80;;;15.00;99.90;;;;;;5025757;28;20478;-80
2022/08/19 05:29:20;;;;;;;46.05;5.15;;;15.00;99.90;;;;;;5019486;28;20473;-80
2022/08/19 05:31:49;;;;;;;7.85;5.15;;;15.10;99.90;;;;;;5020289;28;20041;-80
2022/08/19 05:34:15;;;;;;;9.40;5.28;;;15.00;99.90;;;;;;5023529;28;20038;-80
2022/08/19 05:36:44;;;;;;;6.40;5.03;;;15.00;99.90;;;;;;5008266;28;20078;-80
2022/08/19 05:39:15;;;;;;;4.93;4.05;;;15.10;99.90;;;;;;5027793;28;20072;-80
2022/08/19 05:41:54;;;;;;;8.25;4.72;;;15.10;99.90;;;;;;5009065;28;20034;-80
2022/08/19 05:44:21;;;;;;;6.80;5.03;;;15.20;99.90;;;;;;4996995;28;20042;-80
2022/08/19 05:46:47;;;;;;;7.22;5.47;;;15.20;99.90;;;;;;5025402;28;20037;-80
2022/08/19 05:49:15;;;;;;;10.93;7.65;;;15.40;99.90;;;;;;5016738;28;20046;-80
2022/08/19 05:51:42;;;;;;;13.02;8.15;;;15.40;99.90;;;;;;4999679;28;20053;-80
2022/08/19 05:54:08;;;;;;;12.52;8.25;;;15.60;99.90;;;;;;5010006;28;20273;-80
2022/08/19 05:56:37;;;;;;;11.95;8.30;;;15.70;99.90;;;;;;4984504;28;20057;-81
2022/08/19 05:59:08;;;;;;;13.25;8.85;;;15.80;99.90;;;;;;5022825;28;20041;-81
2022/08/19 06:01:35;;;;;;;13.40;8.77;;;16.00;99.90;;;;;;5005153;28;20045;-81
2022/08/19 06:04:02;;;;;;;16.58;10.18;;;16.10;99.90;;;;;;5023869;28;20038;-81
2022/08/19 06:06:28;;;;;;;10.82;8.40;;;16.30;99.90;;;;;;5031537;28;20456;-81
2022/08/19 06:08:54;;;;;;;11.98;8.80;;;16.40;99.90;;;;;;5008592;28;20096;-81
2022/08/19 06:11:33;;;;;;;13.07;8.73;;;16.50;99.90;;;;;;5019462;28;20045;-81
2022/08/19 06:14:02;;;;;;;15.27;9.02;;;16.60;99.90;;;;;;5016723;28;20036;-81
2022/08/19 06:16:29;;;;;;;15.40;10.55;;;16.70;99.90;;;;;;5014978;28;20045;-81
2022/08/19 06:18:56;;;;;;;14.27;10.18;;;16.90;99.90;;;;;;5017197;28;20042;-81
2022/08/19 06:21:24;;;;;;;14.63;10.77;;;17.10;99.90;;;;;;5018815;28;20041;-81
2022/08/19 06:23:51;;;;;;;16.50;10.60;;;17.20;99.90;;;;;;5022960;28;20372;-81
2022/08/19 06:26:18;;;;;;;14.60;10.15;;;17.40;99.90;;;;;;5008273;28;20046;-81
2022/08/19 06:28:46;;;;;;;14.23;10.07;;;17.60;99.90;;;;;;5000725;28;20389;-81
2022/08/19 06:31:17;;;;;;;14.75;10.63;;;17.80;99.90;;;;;;5021260;28;20072;-81
2022/08/19 06:33:44;;;;;;;13.40;10.00;;;18.00;99.90;;;;;;5005160;28;20057;-81
2022/08/19 06:36:31;;;;;;;12.18;10.05;;;18.30;99.90;;;;;;4988296;28;20046;-81
2022/08/19 06:39:05;;;;;;;12.48;9.30;;;18.90;99.90;;;;;;5024668;28;20034;-81
2022/08/19 06:41:34;;;;;;;12.40;8.95;;;19.60;99.90;;;;;;5026803;28;20481;-81
2022/08/19 06:44:00;;;;;;;11.13;8.45;;;20.20;99.90;;;;;;5009141;28;20037;-81
2022/08/19 06:46:26;;;;;;;10.35;8.02;;;20.60;99.90;;;;;;5001995;28;20132;-81
2022/08/19 06:48:54;;;;;;;11.75;8.45;;;21.20;99.90;;;;;;5002916;28;20048;-81
2022/08/19 06:51:20;;;;;;;9.85;7.65;;;21.50;99.90;;;;;;5008050;28;20045;-81
2022/08/19 06:53:50;;;;;;;9.35;7.10;;;21.80;99.90;;;;;;5025660;28;20501;-81
2022/08/19 06:56:20;;;;;;;8.68;6.93;;;22.20;99.90;;;;;;5002647;28;20099;-78
2022/08/19 06:58:48;;;;;;;9.60;7.35;;;22.50;99.90;;;;;;5027907;28;20437;-78
2022/08/19 07:01:13;;;;;;;11.23;7.20;;;22.80;99.90;;;;;;5004271;28;20049;-78
2022/08/19 07:03:39;;;;;;;7.82;6.20;;;22.90;99.90;;;;;;4985490;28;20498;-78
2022/08/19 07:06:09;;;;;;;9.50;6.85;;;23.10;99.90;;;;;;5029302;28;20152;-79
2022/08/19 07:08:36;;;;;;;11.40;6.63;;;23.30;99.90;;;;;;5004325;28;20111;-79
2022/08/19 07:11:06;;;;;;;9.25;6.68;;;23.40;99.90;;;;;;5005703;28;20033;-78
2022/08/19 07:13:36;;;;;;;8.05;6.20;;;23.70;99.90;;;;;;5004183;28;20409;-79
2022/08/19 07:16:10;;;;;;;7.88;6.15;;;23.80;99.90;;;;;;4999298;28;20117;-79
2022/08/19 07:18:36;;;;;;;6.70;5.95;;;23.90;99.90;;;;;;5016080;28;20500;-79
2022/08/19 07:21:12;;;;;;;7.90;5.88;;;24.00;99.90;;;;;;5010511;28;20473;-80
2022/08/19 07:23:38;;;;;;;8.43;6.03;;;24.10;99.90;;;;;;5023107;28;20102;-82
2022/08/19 07:26:07;;;;;;;;;;;24.30;99.90;;;;;;5002265;28;20068;-81
2022/08/19 07:28:33;;;;;;;7.93;6.15;;;24.50;99.90;;;;;;5006985;28;20015;-81
2022/08/19 07:31:01;;;;;;;;;;;24.70;99.90;;;;;;5003407;28;20121;-80
2022/08/19 07:33:27;;;;;;;8.05;6.30;;;24.80;99.90;;;;;;5007365;28;19917;-80
2022/08/19 07:35:54;;;;;;;9.63;6.80;;;25.00;99.90;;;;;;5019610;28;20030;-81
2022/08/19 07:38:19;;;;;;;9.52;6.10;;;25.20;99.90;;;;;;5021874;28;20482;-80
2022/08/19 07:40:45;;;;;;;8.52;5.60;;;25.30;99.90;;;;;;5022793;28;20038;-80
2022/08/19 07:43:11;;;;;;;6.88;5.80;;;25.50;99.90;;;;;;5017981;28;20044;-80
2022/08/19 07:45:37;;;;;;;7.03;5.53;;;25.70;99.90;;;;;;4984059;28;20038;-79
2022/08/19 07:48:03;;;;;;;;;;;26.00;99.90;;;;;;5003447;28;20084;-80
2022/08/19 07:50:29;;;;;;;8.67;5.93;;;26.20;99.90;;;;;;5024324;28;19920;-80
2022/08/19 07:52:56;;;;;;;7.88;5.43;;;26.40;99.90;;;;;;4979701;28;20370;-80
2022/08/19 07:55:24;;;;;;;8.50;5.45;;;26.50;99.90;;;;;;5003140;28;20049;-80
2022/08/19 07:57:52;;;;;;;8.55;5.75;;;26.70;99.90;;;;;;5018313;28;20096;-80
2022/08/19 08:00:18;;;;;;;7.45;5.47;;;26.90;99.90;;;;;;5021500;28;20065;-80
2022/08/19 08:02:44;;;;;;;7.97;5.03;;;27.10;99.90;;;;;;5017254;28;20037;-80
2022/08/19 08:10:39;;;;;;;6.45;5.32;;;27.50;99.90;;;;;;5007925;28;20599;-76
2022/08/19 08:13:06;;;;;;;5.90;5.30;;;27.70;99.90;;;;;;5029250;28;20065;-76
2022/08/19 08:15:32;;;;;;;7.40;4.97;;;27.90;99.90;;;;;;5012071;28;20036;-77
2022/08/19 08:17:57;;;;;;;7.13;5.20;;;28.10;99.90;;;;;;5028392;28;20033;-77
2022/08/19 08:20:24;;;;;;;5.68;4.88;;;28.30;99.90;;;;;;5015109;28;20042;-77
2022/08/19 08:25:36;;;;;;;6.43;5.70;;;28.40;99.90;;;;;;5008730;28;20038;-74
2022/08/19 08:28:02;;;;;;;7.50;5.88;;;28.60;99.90;;;;;;5008785;28;20493;-74
2022/08/19 08:30:30;;;;;;;7.40;5.15;;;28.70;99.90;;;;;;5008929;28;20034;-75
2022/08/19 08:32:56;;;;;;;7.05;5.95;;;28.90;99.90;;;;;;5009168;28;20038;-75
2022/08/19 08:35:24;;;;;;;7.53;6.28;;;28.90;99.90;;;;;;5009618;28;20046;-75
2022/08/19 08:37:53;;;;;;;10.32;7.18;;;29.00;99.90;;;;;;4992474;28;20536;-75
2022/08/19 08:40:29;;;;;;;6.60;5.57;;;29.30;99.90;;;;;;5016091;28;20053;-75
2022/08/19 08:43:22;;;;;;;6.15;5.10;;;29.10;99.90;;;;;;5016916;28;20041;-75
2022/08/19 08:46:01;;;;;;;8.32;5.75;;;29.30;99.90;;;;;;5015598;28;20060;-75
2022/08/19 08:48:53;;;;;;;8.00;7.00;;;29.40;99.90;;;;;;5016379;28;20069;-75
2022/08/19 08:51:26;;;;;;;8.68;6.43;;;29.60;99.90;;;;;;5017906;28;20616;-75
2022/08/19 08:53:53;;;;;;;7.10;6.40;;;29.90;99.90;;;;;;5001290;28;20140;-75
2022/08/19 08:56:19;;;;;;;7.53;6.40;;;30.00;99.90;;;;;;5019869;28;20419;-75
2022/08/19 08:58:56;;;;;;;8.38;7.50;;;30.20;99.90;;;;;;5016559;28;20389;-75
2022/08/19 09:01:22;;;;;;;9.65;6.88;;;30.10;99.90;;;;;;5041043;28;20053;-75
2022/08/19 09:03:47;;;;;;;8.60;7.13;;;30.10;99.90;;;;;;5018794;28;20033;-75
2022/08/19 09:06:28;;;;;;;8.32;7.20;;;30.20;99.90;;;;;;5018838;28;20103;-75
2022/08/19 09:09:13;;;;;;;8.40;6.88;;;30.30;99.90;;;;;;5018392;28;20073;-75
2022/08/19 09:12:06;;;;;;;11.45;8.40;;;30.70;99.60;;;;;;5016966;28;20510;-75
2022/08/19 09:14:55;;;;;;;8.27;7.30;;;30.90;99.90;;;;;;5001436;28;20045;-76
2022/08/19 09:17:27;;;;;;;8.98;7.70;;;31.00;99.60;;;;;;5001768;28;20038;-77
2022/08/19 09:20:14;;;;;;;7.95;7.25;;;31.20;98.60;;;;;;5015947;28;20034;-76
2022/08/19 09:22:43;;;;;;;8.98;7.90;;;31.50;98.40;;;;;;5002197;28;20295;-76
2022/08/19 09:25:12;;;;;;;8.32;6.90;;;31.30;98.70;;;;;;5018066;28;20042;-76
2022/08/19 09:27:39;;;;;;;8.52;7.03;;;31.30;98.90;;;;;;5025977;28;20404;-77
2022/08/19 09:30:07;;;;;;;8.68;7.72;;;31.60;98.40;;;;;;5021834;28;20040;-76
2022/08/19 09:32:33;;;;;;;8.63;7.72;;;31.80;98.10;;;;;;5007385;28;20105;-77
2022/08/19 09:35:00;;;;;;;8.35;7.18;;;32.00;98.30;;;;;;5009833;28;20076;-76
2022/08/19 09:37:26;;;;;;;7.50;6.30;;;32.00;98.00;;;;;;5011357;28;20053;-76
2022/08/19 09:39:52;;;;;;;7.70;6.90;;;32.20;97.90;;;;;;5011782;28;20065;-76
2022/08/19 09:42:18;;;;;;;8.65;7.07;;;32.40;97.90;;;;;;5011359;28;20038;-76
2022/08/19 09:44:44;;;;;;;6.60;5.95;;;32.30;97.30;;;;;;5011894;28;20430;-76
2022/08/19 09:47:12;;;;;;;8.13;6.80;;;32.50;97.60;;;;;;5013569;28;20504;-76
2022/08/19 09:49:39;;;;;;;7.57;6.57;;;32.60;97.30;;;;;;5011194;28;20046;-76
2022/08/19 09:52:07;;;;;;;8.50;7.32;;;33.00;96.70;;;;;;4995132;28;20063;-77
2022/08/19 09:54:33;;;;;;;7.15;6.32;;;33.10;96.80;;;;;;5010760;28;20084;-77
2022/08/19 09:57:02;;;;;;;8.70;7.05;;;33.10;95.90;;;;;;5018356;28;20052;-77
2022/08/19 09:59:28;;;;;;;8.40;7.60;;;33.10;96.40;;;;;;5016382;28;20057;-76
2022/08/19 10:01:54;;;;;;;8.38;7.55;;;33.10;96.40;;;;;;5020163;28;20083;-77
2022/08/19 10:04:21;;;;;;;8.98;6.95;;;33.50;95.80;;;;;;5022026;28;20116;-77
2022/08/19 10:06:48;;;;;;;9.02;8.13;;;33.60;95.60;;;;;;5045595;28;20076;-78
2022/08/19 10:09:16;;;;;;;9.05;7.82;;;33.70;95.10;;;;;;5021322;28;20041;-76
2022/08/19 10:11:49;;;;;;;9.07;7.43;;;33.50;95.70;;;;;;5020945;28;20029;-78
2022/08/19 10:14:16;;;;;;;8.52;7.50;;;33.70;95.50;;;;;;5003100;28;20046;-77
2022/08/19 10:16:42;;;;;;;8.60;7.55;;;33.40;95.30;;;;;;5022742;28;20033;-77
2022/08/19 10:19:09;;;;;;;8.02;7.22;;;33.60;95.50;;;;;;5001406;28;20141;-79
2022/08/19 10:21:35;;;;;;;8.38;7.57;;;33.70;95.40;;;;;;5021999;28;20175;-78
2022/08/19 10:24:05;;;;;;;10.43;8.80;;;33.50;95.50;;;;;;5031978;28;20033;-78
2022/08/19 10:26:34;;;;;;;8.07;7.28;;;33.20;94.60;;;;;;5030252;28;20060;-79
2022/08/19 10:29:00;;;;;;;8.50;7.47;;;33.50;94.90;;;;;;5031832;28;20163;-77
2022/08/19 10:31:31;;;;;;;9.05;7.22;;;33.90;95.20;;;;;;5012042;28;20172;-78
2022/08/19 10:33:57;;;;;;;7.57;6.80;;;33.90;94.50;;;;;;5029092;28;20041;-79
2022/08/19 10:36:34;;;;;;;7.75;6.95;;;34.10;95.10;;;;;;5030185;28;20049;-79
2022/08/19 10:39:03;;;;;;;7.68;6.93;;;34.30;95.20;;;;;;5007027;28;20125;-78
2022/08/19 10:41:31;;;;;;;6.80;6.15;;;34.30;94.70;;;;;;5013257;28;20060;-78
2022/08/19 10:44:01;;;;;;;6.40;5.75;;;34.00;94.80;;;;;;5003040;28;20385;-78
2022/08/19 10:46:28;;;;;;;7.25;6.57;;;34.20;93.80;;;;;;5020054;28;20041;-78
2022/08/19 10:48:54;;;;;;;7.30;6.60;;;34.20;93.90;;;;;;5006324;28;20239;-78
2022/08/19 10:54:05;;;;;;;7.95;7.10;;;34.20;93.80;;;;;;5017157;28;20050;-78
2022/08/19 10:56:50;;;;;;;8.05;7.07;;;34.50;94.00;;;;;;5020597;28;20034;-78
2022/08/19 10:59:27;;;;;;;8.18;7.38;;;34.30;94.50;;;;;;5013318;28;20042;-78
2022/08/19 11:01:54;;;;;;;8.65;7.85;;;34.40;94.90;;;;;;5020885;28;20444;-78
2022/08/19 11:04:22;;;;;;;11.30;9.57;;;33.90;94.80;;;;;;5002090;28;20034;-78
2022/08/19 11:06:48;;;;;;;8.90;8.00;;;33.50;95.20;;;;;;5022253;28;20029;-78
2022/08/19 11:09:17;;;;;;;9.00;8.10;;;33.60;95.20;;;;;;5019449;28;20559;-79
2022/08/19 11:11:43;;;;;;;11.15;7.95;;;33.70;95.20;;;;;;5018563;28;20075;-78
2022/08/19 11:14:11;;;;;;;9.32;8.43;;;33.90;94.70;;;;;;5020522;28;20088;-78
2022/08/19 11:16:40;;;;;;;7.68;6.97;;;34.00;94.20;;;;;;5021518;28;20497;-77
2022/08/19 11:19:08;;;;;;;6.78;6.18;;;33.90;94.30;;;;;;5013508;28;20068;-78
2022/08/19 11:21:36;;;;;;;8.20;7.30;;;33.50;93.50;;;;;;5012822;28;20037;-77
2022/08/19 11:24:15;;;;;;;9.05;8.15;;;33.90;93.90;;;;;;5031035;28;20144;-78
2022/08/19 11:26:42;;;;;;;8.85;7.78;;;33.90;94.60;;;;;;5029089;28;20033;-79
2022/08/19 11:29:12;;;;;;;8.88;7.88;;;33.80;95.00;;;;;;5003395;28;20076;-77
2022/08/19 11:31:42;;;;;;;9.23;8.07;;;33.30;94.90;;;;;;5019859;28;20045;-77
2022/08/19 11:34:11;;;;;;;10.40;9.30;;;33.10;95.10;;;;;;5018455;28;20493;-77
2022/08/19 11:36:40;;;;;;;11.43;8.60;;;32.40;95.00;;;;;;5009347;28;20436;-77
2022/08/19 11:39:07;;;;;;;10.02;8.55;;;32.10;95.80;;;;;;5017420;28;20547;-77
2022/08/19 11:41:34;;;;;;;9.02;8.23;;;32.00;95.70;;;;;;5019231;28;20037;-77
2022/08/19 11:43:59;;;;;;;9.45;8.55;;;31.90;95.80;;;;;;5019122;28;20053;-77
2022/08/19 11:46:29;;;;;;;8.75;7.85;;;31.90;95.80;;;;;;5017504;28;20050;-77
2022/08/19 11:49:00;;;;;;;10.75;8.23;;;31.90;95.30;;;;;;5020283;28;20049;-77
2022/08/19 11:51:27;;;;;;;9.43;7.95;;;32.00;95.90;;;;;;5017509;28;20073;-77
2022/08/19 11:53:55;;;;;;;10.93;8.88;;;31.60;96.00;;;;;;5021937;28;20108;-81
2022/08/19 11:56:22;;;;;;;10.10;8.75;;;31.50;95.90;;;;;;5012579;28;20092;-81
2022/08/19 11:58:48;;;;;;;10.13;8.50;;;31.30;96.10;;;;;;5006669;28;21028;-82
2022/08/19 12:01:17;;;;;;;8.80;7.85;;;31.30;96.00;;;;;;4975995;28;20460;-82
2022/08/19 12:03:45;;;;;;;8.95;8.05;;;31.20;95.80;;;;;;5026949;28;20064;-82
2022/08/19 12:06:16;;;;;;;8.27;7.43;;;31.00;96.00;;;;;;4997491;28;20588;-82
2022/08/19 12:08:42;;;;;;;8.07;7.28;;;31.00;96.30;;;;;;4995432;28;20417;-82
2022/08/19 12:11:10;;;;;;;9.32;8.30;;;31.10;96.60;;;;;;5012873;28;20045;-82
2022/08/19 12:13:37;;;;;;;9.90;8.77;;;31.10;96.30;;;;;;5012597;28;20163;-82
2022/08/19 12:16:12;;;;;;;10.65;9.30;;;31.40;95.90;;;;;;5029358;28;20151;-82
2022/08/19 12:18:41;;;;;;;9.30;7.90;;;31.70;96.10;;;;;;5021577;28;20076;-82
2022/08/19 12:21:09;;;;;;;9.82;7.88;;;31.80;96.10;;;;;;4991243;28;20041;-82
2022/08/19 12:23:36;;;;;;;7.45;6.40;;;31.70;95.60;;;;;;4992578;28;20038;-82
2022/08/19 12:26:02;;;;;;;8.07;6.05;;;31.70;95.60;;;;;;5007107;28;20124;-82
2022/08/19 12:28:28;;;;;;;9.40;6.65;;;31.70;95.10;;;;;;4976559;28;20120;-82
2022/08/19 12:30:55;;;;;;;7.45;6.22;;;31.80;95.00;;;;;;4992732;28;20076;-82
2022/08/19 12:33:24;;;;;;;6.97;6.28;;;31.70;95.10;;;;;;5009566;28;20045;-82
2022/08/19 12:35:50;;;;;;;7.47;6.07;;;31.60;95.70;;;;;;4995401;28;20448;-82
2022/08/19 12:38:16;;;;;;;7.30;5.80;;;31.60;95.50;;;;;;5009399;28;20466;-82
2022/08/19 12:40:46;;;;;;;9.30;6.68;;;31.70;95.50;;;;;;5000304;28;20382;-82
2022/08/19 12:43:15;;;;;;;7.50;5.80;;;31.70;94.70;;;;;;5014946;28;20068;-83
2022/08/19 12:45:42;;;;;;;9.18;6.68;;;31.70;95.10;;;;;;5002872;28;20083;-83
2022/08/19 12:48:09;;;;;;;6.57;5.95;;;31.70;95.20;;;;;;5013352;28;20041;-83
2022/08/19 12:50:34;;;;;;;7.05;5.82;;;31.70;95.20;;;;;;5027839;28;20037;-83
2022/08/19 12:53:00;;;;;;;8.70;6.35;;;31.30;94.90;;;;;;4995879;28;20068;-83
2022/08/19 12:55:28;;;;;;;6.82;6.20;;;31.30;95.10;;;;;;4994233;28;20049;-83
2022/08/19 12:57:53;;;;;;;8.55;6.57;;;31.10;95.50;;;;;;4997186;28;20046;-83
2022/08/19 13:00:21;;;;;;;7.18;6.35;;;30.90;95.70;;;;;;4986064;28;20038;-82
2022/08/19 13:02:50;;;;;;;6.55;5.80;;;30.90;96.10;;;;;;5012126;28;20417;-82
2022/08/19 13:05:22;;;;;;;9.68;6.60;;;30.90;96.00;;;;;;5028426;28;20048;-77
2022/08/19 13:07:48;;;;;;;11.18;7.50;;;30.90;96.20;;;;;;5015253;28;20117;-77
2022/08/19 13:10:17;;;;;;;9.50;6.47;;;30.80;96.20;;;;;;5027739;28;20041;-77
2022/08/19 13:12:45;;;;;;;10.50;6.28;;;30.70;96.40;;;;;;5027781;28;20075;-77